createdAt,value
2019-02-18T00:03:15.890Z,21.87
2019-02-18T00:08:17.494Z,20.83
2019-02-18T00:13:19.098Z,22.40
2019-02-18T00:18:21.067Z,20.87
2019-02-18T00:23:22.633Z,20.87
2019-02-18T00:28:24.612Z,19.63
2019-02-18T00:33:26.151Z,23.67
2019-02-18T00:38:27.822Z,22.43
2019-02-18T00:43:29.458Z,20.07
2019-02-18T00:48:31.922Z,24.00
2019-02-18T00:53:33.456Z,20.27
2019-02-18T00:58:35.003Z,23.97
2019-02-18T01:03:36.662Z,24.73
2019-02-18T01:08:38.234Z,20.53
2019-02-18T01:13:39.922Z,23.20
2019-02-18T01:18:41.593Z,24.53
2019-02-18T01:23:43.116Z,20.57
2019-02-18T01:28:44.792Z,20.57
2019-02-18T01:33:46.339Z,20.47
2019-02-18T01:38:47.930Z,22.03
2019-02-18T01:43:49.592Z,19.13
2019-02-18T01:48:51.151Z,24.47
2019-02-18T01:53:52.886Z,22.23
2019-02-18T01:58:54.526Z,23.37
2019-02-18T02:03:56.538Z,22.17
2019-02-18T02:08:58.132Z,22.70
2019-02-18T02:14:00.062Z,23.77
2019-02-18T02:19:01.690Z,24.90
2019-02-18T02:24:03.261Z,20.03
2019-02-18T02:29:04.883Z,21.20
2019-02-18T02:34:06.866Z,22.87
2019-02-18T02:39:08.409Z,21.90
2019-02-18T02:44:10.022Z,24.87
2019-02-18T02:49:11.569Z,22.83
2019-02-18T02:54:13.402Z,22.77
2019-02-18T02:59:15.246Z,21.07
2019-02-18T03:04:17.467Z,24.67
2019-02-18T03:09:19.046Z,19.57
2019-02-18T03:14:20.640Z,19.93
2019-02-18T03:19:22.703Z,24.17
2019-02-18T03:24:24.353Z,28.17
2019-02-18T03:30:03.140Z,21.13
2019-02-18T03:35:04.761Z,23.97
2019-02-18T03:40:06.444Z,22.07
2019-02-18T03:45:08.022Z,20.97
2019-02-18T03:50:09.576Z,22.93
2019-02-18T03:55:11.549Z,20.83
2019-02-18T04:00:13.238Z,21.33
2019-02-18T04:05:14.784Z,21.47
2019-02-18T04:10:16.367Z,22.13
2019-02-18T04:15:17.961Z,22.60
2019-02-18T04:20:19.576Z,22.43
2019-02-18T04:25:21.163Z,21.37
2019-02-18T04:30:22.848Z,18.53
2019-02-18T04:35:24.435Z,20.00
2019-02-18T04:40:26.026Z,21.33
2019-02-18T04:45:27.966Z,19.30
2019-02-18T04:50:29.534Z,24.57
2019-02-18T04:55:31.099Z,20.17
2019-02-18T05:00:32.714Z,20.30
2019-02-18T05:05:34.728Z,18.67
2019-02-18T05:10:36.329Z,20.50
2019-02-18T05:15:40.217Z,19.83
2019-02-18T05:20:41.722Z,18.73
2019-02-18T05:25:43.327Z,19.73
2019-02-18T05:30:45.197Z,19.63
2019-02-18T05:35:46.771Z,19.30
2019-02-18T05:40:48.431Z,16.83
2019-02-18T05:45:50.041Z,20.23
2019-02-18T05:50:51.604Z,17.20
2019-02-18T05:55:53.383Z,18.80
2019-02-18T06:00:55.012Z,17.70
2019-02-18T06:05:57.644Z,19.53
2019-02-18T06:10:59.347Z,17.10
2019-02-18T06:16:00.913Z,17.73
2019-02-18T06:21:02.755Z,17.00
2019-02-18T06:26:04.366Z,19.80
2019-02-18T06:31:05.998Z,15.97
2019-02-18T06:36:07.709Z,19.70
2019-02-18T06:41:09.372Z,20.73
2019-02-18T06:46:10.973Z,15.30
2019-02-18T06:51:12.664Z,17.77
2019-02-18T06:56:14.511Z,18.00
2019-02-18T07:01:16.458Z,17.17
2019-02-18T07:06:18.224Z,17.80
2019-02-18T07:11:19.981Z,19.93
2019-02-18T07:16:22.673Z,16.97
2019-02-18T07:21:24.388Z,16.40
2019-02-18T07:26:26.076Z,17.73
2019-02-18T07:31:28.135Z,19.83
2019-02-18T07:36:31.252Z,18.63
2019-02-18T07:41:33.233Z,14.47
2019-02-18T07:46:34.879Z,16.47
2019-02-18T07:51:36.491Z,16.23
2019-02-18T07:56:38.097Z,19.03
2019-02-18T08:01:39.649Z,17.53
2019-02-18T08:06:41.308Z,27.20
2019-02-18T08:11:43.036Z,21.63
2019-02-18T08:16:44.707Z,16.73
2019-02-18T08:21:46.622Z,17.57
2019-02-18T08:26:49.629Z,16.77
2019-02-18T08:31:51.530Z,19.93
2019-02-18T08:36:53.589Z,13.73
2019-02-18T08:41:55.203Z,15.97
2019-02-18T08:46:56.814Z,17.40
2019-02-18T08:51:59.029Z,21.27
2019-02-18T08:57:00.678Z,16.87
2019-02-18T09:02:03.112Z,23.00
2019-02-18T09:07:04.976Z,16.80
2019-02-18T09:12:06.594Z,20.37
2019-02-18T09:17:08.152Z,15.47
2019-02-18T09:22:09.725Z,16.23
2019-02-18T09:27:11.299Z,21.97
2019-02-18T09:32:12.886Z,22.37
2019-02-18T09:37:14.437Z,19.13
2019-02-18T09:42:16.096Z,22.23
2019-02-18T09:47:17.651Z,19.73
2019-02-18T09:52:19.862Z,20.13
2019-02-18T09:57:21.515Z,30.50
2019-02-18T10:02:23.068Z,19.70
2019-02-18T10:07:24.660Z,19.40
2019-02-18T10:12:26.247Z,20.80
2019-02-18T10:17:27.973Z,18.53
2019-02-18T10:22:29.664Z,20.53
2019-02-18T10:27:31.572Z,17.97
2019-02-18T10:32:33.148Z,21.20
2019-02-18T10:37:35.450Z,18.50
2019-02-18T10:42:37.022Z,17.10
2019-02-18T10:47:38.623Z,23.43
2019-02-18T10:52:44.708Z,20.93
2019-02-18T10:57:47.322Z,26.20
2019-02-18T11:02:49.184Z,22.10
2019-02-18T11:07:51.999Z,20.17
2019-02-18T11:12:53.684Z,25.80
2019-02-18T11:17:55.342Z,28.77
2019-02-18T11:22:56.948Z,24.20
2019-02-18T11:27:58.529Z,24.63
2019-02-18T11:33:00.872Z,27.17
2019-02-18T11:38:02.461Z,27.20
2019-02-18T11:43:06.519Z,22.40
2019-02-18T11:48:08.119Z,30.23
2019-02-18T11:53:09.778Z,30.83
2019-02-18T11:58:11.425Z,22.43
2019-02-18T12:03:13.205Z,24.40
2019-02-18T12:08:15.287Z,23.77
2019-02-18T12:13:16.923Z,21.97
2019-02-18T12:18:18.587Z,28.57
2019-02-18T12:23:20.407Z,24.70
2019-02-18T12:28:22.037Z,26.07
2019-02-18T12:33:23.604Z,22.67
2019-02-18T12:38:25.244Z,20.97
2019-02-18T12:43:29.278Z,23.12
2019-02-18T12:48:30.373Z,20.97
2019-02-18T12:53:32.066Z,17.15
2019-02-18T12:58:34.167Z,17.80
2019-02-18T13:03:36.217Z,26.85
2019-02-18T13:08:37.792Z,24.72
2019-02-18T13:13:40.434Z,17.90
2019-02-18T13:18:43.531Z,27.32
2019-02-18T13:23:45.190Z,16.10
2019-02-18T13:28:46.898Z,28.52
2019-02-18T13:33:48.643Z,18.37
2019-02-18T13:38:50.319Z,21.73
2019-02-18T13:43:52.290Z,18.15
2019-02-18T13:48:53.985Z,21.60
2019-02-18T13:53:55.581Z,19.57
2019-02-18T13:58:57.164Z,19.02
2019-02-18T14:03:59.067Z,20.52
2019-02-18T14:09:00.743Z,20.05
2019-02-18T14:14:02.901Z,19.15
2019-02-18T14:19:04.504Z,24.00
2019-02-18T14:24:06.142Z,22.42
2019-02-18T14:29:07.915Z,20.23
2019-02-18T14:34:09.793Z,24.85
2019-02-18T14:39:11.589Z,20.95
2019-02-18T14:44:13.130Z,22.85
2019-02-18T14:49:14.757Z,22.65
2019-02-18T14:54:16.417Z,19.90
2019-02-18T14:59:18.366Z,21.10
2019-02-18T15:04:19.919Z,27.58
2019-02-18T15:09:22.035Z,19.48
2019-02-18T15:14:23.980Z,25.40
2019-02-18T15:19:25.860Z,22.07
2019-02-18T15:24:27.955Z,24.92
2019-02-18T15:29:29.990Z,23.57
2019-02-18T15:34:31.628Z,25.25
2019-02-18T15:39:33.203Z,22.82
2019-02-18T15:44:35.194Z,19.95
2019-02-18T15:49:37.139Z,21.20
2019-02-18T15:54:38.881Z,23.98
2019-02-18T15:59:41.034Z,24.95
2019-02-18T16:04:42.573Z,26.12
2019-02-18T16:09:44.242Z,27.90
2019-02-18T16:14:45.840Z,28.92
2019-02-18T16:19:47.521Z,25.23
2019-02-18T16:24:49.264Z,27.02
2019-02-18T16:29:51.309Z,26.00
2019-02-18T16:34:53.755Z,25.03
2019-02-18T16:39:56.221Z,25.47
2019-02-18T16:44:57.819Z,27.73
2019-02-18T16:49:59.475Z,24.73
2019-02-18T16:55:01.187Z,32.60
2019-02-18T17:00:02.966Z,35.23
2019-02-18T17:05:04.714Z,27.97
2019-02-18T17:10:06.265Z,31.47
2019-02-18T17:15:08.050Z,29.00
2019-02-18T17:20:09.626Z,28.13
2019-02-18T17:25:11.340Z,27.33
2019-02-18T17:30:13.906Z,33.07
2019-02-18T17:35:15.504Z,30.70
2019-02-18T17:40:17.160Z,30.87
2019-02-18T17:45:18.932Z,35.17
2019-02-18T17:50:21.739Z,30.20
2019-02-18T17:55:25.339Z,29.43
2019-02-18T18:00:27.398Z,28.37
2019-02-18T18:05:28.924Z,24.83
2019-02-18T18:10:31.437Z,32.27
2019-02-18T18:15:33.349Z,25.87
2019-02-18T18:20:34.927Z,27.53
2019-02-18T18:25:36.474Z,29.57
2019-02-18T18:30:37.979Z,30.67
2019-02-18T18:35:39.520Z,31.57
2019-02-18T18:40:41.546Z,28.63
2019-02-18T18:45:43.379Z,29.60
2019-02-18T18:50:45.276Z,31.73
2019-02-18T18:55:46.895Z,29.23
2019-02-18T19:00:49.093Z,30.77
2019-02-18T19:05:50.980Z,32.00
2019-02-18T19:10:52.691Z,37.40
2019-02-18T19:15:54.462Z,34.50
2019-02-18T19:20:56.206Z,33.30
2019-02-18T19:25:57.836Z,28.80
2019-02-18T19:31:02.801Z,36.27
2019-02-18T19:36:04.387Z,33.03
2019-02-18T19:41:06.404Z,42.27
2019-02-18T19:46:08.542Z,40.83
2019-02-18T19:51:11.357Z,42.43
2019-02-18T19:56:13.141Z,40.70
2019-02-18T20:01:14.720Z,40.70
2019-02-18T20:06:16.948Z,45.47
2019-02-18T20:11:18.538Z,36.77
2019-02-18T20:16:21.173Z,39.77
2019-02-18T20:21:22.938Z,35.83
2019-02-18T20:26:24.550Z,33.57
2019-02-18T20:31:26.675Z,33.70
2019-02-18T20:36:28.471Z,37.50
2019-02-18T20:41:30.067Z,33.97
2019-02-18T20:46:33.829Z,41.47
2019-02-18T20:51:35.908Z,45.43
2019-02-18T20:56:37.550Z,40.03
2019-02-18T21:01:39.254Z,41.27
2019-02-18T21:06:40.935Z,37.03
2019-02-18T21:11:43.046Z,34.37
2019-02-18T21:16:44.864Z,38.40
2019-02-18T21:21:46.762Z,46.80
2019-02-18T21:26:48.578Z,46.67
2019-02-18T21:31:50.206Z,47.40
2019-02-18T21:36:52.010Z,43.83
2019-02-18T21:41:54.814Z,47.70
2019-02-18T21:46:56.486Z,39.43
2019-02-18T21:51:58.088Z,38.03
2019-02-18T21:57:00.271Z,47.50
2019-02-18T22:02:02.310Z,37.83
2019-02-18T22:07:04.171Z,41.27
2019-02-18T22:12:06.245Z,39.97
2019-02-18T22:17:07.874Z,40.17
2019-02-18T22:22:09.478Z,44.77
2019-02-18T22:27:11.020Z,55.67
2019-02-18T22:32:16.351Z,54.20
2019-02-18T22:37:17.944Z,65.40
2019-02-18T22:42:19.668Z,70.30
2019-02-18T22:47:22.511Z,73.63
2019-02-18T22:52:24.248Z,61.87
2019-02-18T22:57:26.417Z,69.97
2019-02-18T23:02:28.497Z,69.00
2019-02-18T23:07:30.174Z,61.73
2019-02-18T23:12:31.871Z,49.73
2019-02-18T23:17:33.502Z,46.93
2019-02-18T23:22:35.565Z,38.73
2019-02-18T23:27:37.326Z,35.70
2019-02-18T23:32:38.948Z,28.97
2019-02-18T23:37:40.689Z,23.20
2019-02-18T23:42:42.783Z,13.67
2019-02-18T23:47:44.766Z,14.60
2019-02-18T23:52:46.489Z,29.07
2019-02-18T23:57:48.510Z,35.37
